sensor_id;sensor_type;location;lat;lon;timestamp;pressure;altitude;pressure_sealevel;temperature;humidity
61109;BME280;46995;55.740;37.402;2022-08-25T00:01:47;100550.38;;;19.00;62.65
61109;BME280;46995;55.740;37.402;2022-08-25T00:04:15;100544.34;;;18.98;62.62
61109;BME280;46995;55.740;37.402;2022-08-25T00:06:42;100558.25;;;19.01;62.69
61109;BME280;46995;55.740;37.402;2022-08-25T00:09:11;100548.16;;;18.95;62.36
61109;BME280;46995;55.740;37.402;2022-08-25T00:11:38;100543.66;;;18.96;62.74
61109;BME280;46995;55.740;37.402;2022-08-25T00:14:12;100572.81;;;19.07;63.12
61109;BME280;46995;55.740;37.402;2022-08-25T00:16:38;100550.69;;;18.97;62.66
61109;BME280;46995;55.740;37.402;2022-08-25T00:19:10;100511.81;;;18.77;62.68
61109;BME280;46995;55.740;37.402;2022-08-25T00:21:39;100556.41;;;19.02;62.56
61109;BME280;46995;55.740;37.402;2022-08-25T00:24:06;100561.75;;;19.02;62.98
61109;BME280;46995;55.740;37.402;2022-08-25T00:26:33;100540.63;;;18.91;62.64
61109;BME280;46995;55.740;37.402;2022-08-25T00:29:00;100559.09;;;19.02;62.50
61109;BME280;46995;55.740;37.402;2022-08-25T00:31:25;100544.00;;;18.93;62.74
61109;BME280;46995;55.740;37.402;2022-08-25T00:33:52;100552.53;;;18.96;62.74
61109;BME280;46995;55.740;37.402;2022-08-25T00:36:18;100567.47;;;19.07;62.19
61109;BME280;46995;55.740;37.402;2022-08-25T00:38:47;100552.69;;;18.95;62.74
61109;BME280;46995;55.740;37.402;2022-08-25T00:41:19;100553.38;;;18.97;63.36
61109;BME280;46995;55.740;37.402;2022-08-25T00:43:58;100558.03;;;18.95;63.33
61109;BME280;46995;55.740;37.402;2022-08-25T00:46:37;100542.94;;;18.86;63.65
61109;BME280;46995;55.740;37.402;2022-08-25T00:49:18;100558.72;;;18.97;63.22
61109;BME280;46995;55.740;37.402;2022-08-25T00:51:51;100565.91;;;18.96;63.27
61109;BME280;46995;55.740;37.402;2022-08-25T00:54:22;100562.59;;;18.94;63.29
61109;BME280;46995;55.740;37.402;2022-08-25T00:56:50;100563.72;;;18.92;63.10
61109;BME280;46995;55.740;37.402;2022-08-25T00:59:21;100535.75;;;18.78;63.20
61109;BME280;46995;55.740;37.402;2022-08-25T01:01:48;100549.47;;;18.83;62.84
61109;BME280;46995;55.740;37.402;2022-08-25T01:04:15;100531.03;;;18.72;63.00
61109;BME280;46995;55.740;37.402;2022-08-25T01:06:41;100532.16;;;18.70;62.98
61109;BME280;46995;55.740;37.402;2022-08-25T01:09:14;100509.78;;;18.53;63.31
61109;BME280;46995;55.740;37.402;2022-08-25T01:11:41;100526.44;;;18.65;63.15
61109;BME280;46995;55.740;37.402;2022-08-25T01:14:10;100540.56;;;18.75;63.32
61109;BME280;46995;55.740;37.402;2022-08-25T01:16:37;100526.94;;;18.60;63.00
61109;BME280;46995;55.740;37.402;2022-08-25T01:19:07;100553.00;;;18.84;63.31
61109;BME280;46995;55.740;37.402;2022-08-25T01:21:45;100521.44;;;18.61;63.31
61109;BME280;46995;55.740;37.402;2022-08-25T01:24:18;100558.34;;;18.84;63.49
61109;BME280;46995;55.740;37.402;2022-08-25T01:26:45;100535.53;;;18.72;62.94
61109;BME280;46995;55.740;37.402;2022-08-25T01:29:11;100528.47;;;18.63;63.25
61109;BME280;46995;55.740;37.402;2022-08-25T01:31:47;100549.56;;;18.74;63.56
61109;BME280;46995;55.740;37.402;2022-08-25T01:34:14;100526.09;;;18.59;63.50
61109;BME280;46995;55.740;37.402;2022-08-25T01:36:42;100551.78;;;18.78;63.39
61109;BME280;46995;55.740;37.402;2022-08-25T01:39:09;100541.53;;;18.74;63.37
61109;BME280;46995;55.740;37.402;2022-08-25T01:44:14;100532.84;;;18.72;63.04
61109;BME280;46995;55.740;37.402;2022-08-25T01:46:40;100560.84;;;18.85;63.65
61109;BME280;46995;55.740;37.402;2022-08-25T01:49:06;100521.59;;;18.60;63.39
61109;BME280;46995;55.740;37.402;2022-08-25T01:51:38;100530.47;;;18.69;63.58
61109;BME280;46995;55.740;37.402;2022-08-25T01:54:04;100563.69;;;18.84;63.35
61109;BME280;46995;55.740;37.402;2022-08-25T01:56:30;100542.03;;;18.69;63.37
61109;BME280;46995;55.740;37.402;2022-08-25T01:58:56;100557.78;;;18.72;63.32
61109;BME280;46995;55.740;37.402;2022-08-25T02:01:23;100526.69;;;18.53;63.48
61109;BME280;46995;55.740;37.402;2022-08-25T02:03:51;100525.59;;;18.56;63.51
61109;BME280;46995;55.740;37.402;2022-08-25T02:06:23;100536.31;;;18.64;63.70
61109;BME280;46995;55.740;37.402;2022-08-25T02:08:52;100541.19;;;18.69;63.71
61109;BME280;46995;55.740;37.402;2022-08-25T02:11:18;100558.63;;;18.73;63.22
61109;BME280;46995;55.740;37.402;2022-08-25T02:13:43;100546.53;;;18.69;63.49
61109;BME280;46995;55.740;37.402;2022-08-25T02:16:16;100552.91;;;18.68;63.81
61109;BME280;46995;55.740;37.402;2022-08-25T02:18:42;100557.78;;;18.72;63.59
61109;BME280;46995;55.740;37.402;2022-08-25T02:21:08;100558.25;;;18.68;63.52
61109;BME280;46995;55.740;37.402;2022-08-25T02:23:36;100549.19;;;18.60;63.55
61109;BME280;46995;55.740;37.402;2022-08-25T02:26:02;100567.94;;;18.69;63.87
61109;BME280;46995;55.740;37.402;2022-08-25T02:28:27;100568.28;;;18.66;63.80
61109;BME280;46995;55.740;37.402;2022-08-25T02:30:53;100570.25;;;18.63;63.92
61109;BME280;46995;55.740;37.402;2022-08-25T02:33:19;100571.28;;;18.63;63.99
61109;BME280;46995;55.740;37.402;2022-08-25T02:35:45;100557.84;;;18.54;64.15
61109;BME280;46995;55.740;37.402;2022-08-25T02:38:10;100551.78;;;18.52;64.38
61109;BME280;46995;55.740;37.402;2022-08-25T02:40:36;100560.38;;;18.56;64.57
61109;BME280;46995;55.740;37.402;2022-08-25T02:43:02;100540.88;;;18.46;64.51
61109;BME280;46995;55.740;37.402;2022-08-25T02:45:28;100561.22;;;18.56;64.45
61109;BME280;46995;55.740;37.402;2022-08-25T02:47:54;100552.09;;;18.49;64.72
61109;BME280;46995;55.740;37.402;2022-08-25T02:50:20;100539.34;;;18.43;64.50
61109;BME280;46995;55.740;37.402;2022-08-25T02:52:46;100542.00;;;18.43;64.48
61109;BME280;46995;55.740;37.402;2022-08-25T02:55:15;100556.84;;;18.55;64.58
61109;BME280;46995;55.740;37.402;2022-08-25T02:57:41;100540.88;;;18.46;64.54
61109;BME280;46995;55.740;37.402;2022-08-25T03:00:13;100553.19;;;18.56;64.67
61109;BME280;46995;55.740;37.402;2022-08-25T03:02:39;100525.97;;;18.43;64.27
61109;BME280;46995;55.740;37.402;2022-08-25T03:05:06;100537.38;;;18.53;64.13
61109;BME280;46995;55.740;37.402;2022-08-25T03:07:33;100561.44;;;18.71;64.91
61109;BME280;46995;55.740;37.402;2022-08-25T03:10:04;100555.47;;;18.77;64.58
61109;BME280;46995;55.740;37.402;2022-08-25T03:12:30;100513.19;;;18.55;64.14
61109;BME280;46995;55.740;37.402;2022-08-25T03:14:58;100554.00;;;18.91;64.33
61109;BME280;46995;55.740;37.402;2022-08-25T03:17:30;100545.31;;;18.89;64.02
61109;BME280;46995;55.740;37.402;2022-08-25T03:19:56;100545.13;;;18.90;63.81
61109;BME280;46995;55.740;37.402;2022-08-25T03:22:22;100529.91;;;18.91;63.85
61109;BME280;46995;55.740;37.402;2022-08-25T03:24:47;100522.56;;;18.93;63.54
61109;BME280;46995;55.740;37.402;2022-08-25T03:27:13;100514.84;;;18.90;63.67
61109;BME280;46995;55.740;37.402;2022-08-25T03:29:39;100534.34;;;19.08;63.30
61109;BME280;46995;55.740;37.402;2022-08-25T03:32:08;100557.31;;;19.27;63.42
61109;BME280;46995;55.740;37.402;2022-08-25T03:34:34;100515.59;;;19.08;63.47
61109;BME280;46995;55.740;37.402;2022-08-25T03:37:00;100512.44;;;19.13;63.30
61109;BME280;46995;55.740;37.402;2022-08-25T03:39:26;100539.75;;;19.32;63.46
61109;BME280;46995;55.740;37.402;2022-08-25T03:41:53;100522.00;;;19.31;63.29
61109;BME280;46995;55.740;37.402;2022-08-25T03:44:19;100553.59;;;19.62;63.08
61109;BME280;46995;55.740;37.402;2022-08-25T03:47:11;100554.09;;;19.73;63.28
61109;BME280;46995;55.740;37.402;2022-08-25T03:49:37;100546.25;;;19.72;62.71
61109;BME280;46995;55.740;37.402;2022-08-25T03:52:03;100530.16;;;19.72;62.63
61109;BME280;46995;55.740;37.402;2022-08-25T03:54:29;100542.38;;;19.91;62.42
61109;BME280;46995;55.740;37.402;2022-08-25T03:56:54;100533.50;;;19.90;62.35
61109;BME280;46995;55.740;37.402;2022-08-25T03:59:20;100521.44;;;19.94;62.22
61109;BME280;46995;55.740;37.402;2022-08-25T04:01:47;100546.56;;;20.17;62.09
61109;BME280;46995;55.740;37.402;2022-08-25T04:04:14;100534.16;;;20.16;61.95
61109;BME280;46995;55.740;37.402;2022-08-25T04:06:41;100535.03;;;20.33;61.52
61109;BME280;46995;55.740;37.402;2022-08-25T04:09:09;100508.66;;;20.20;61.35
61109;BME280;46995;55.740;37.402;2022-08-25T04:11:36;100540.00;;;20.52;60.93
61109;BME280;46995;55.740;37.402;2022-08-25T04:14:03;100532.28;;;20.57;60.98
61109;BME280;46995;55.740;37.402;2022-08-25T04:16:32;100525.56;;;20.61;60.58
61109;BME280;46995;55.740;37.402;2022-08-25T04:18:59;100492.84;;;20.58;60.40
61109;BME280;46995;55.740;37.402;2022-08-25T04:21:27;100535.06;;;20.88;60.21
61109;BME280;46995;55.740;37.402;2022-08-25T04:23:55;100514.88;;;20.92;60.20
61109;BME280;46995;55.740;37.402;2022-08-25T04:26:27;100520.50;;;21.05;59.08
61109;BME280;46995;55.740;37.402;2022-08-25T04:28:56;100510.44;;;21.07;59.18
61109;BME280;46995;55.740;37.402;2022-08-25T04:31:23;100481.91;;;21.06;59.11
61109;BME280;46995;55.740;37.402;2022-08-25T04:33:51;100492.88;;;21.28;58.27
61109;BME280;46995;55.740;37.402;2022-08-25T04:36:17;100514.88;;;21.54;56.86
61109;BME280;46995;55.740;37.402;2022-08-25T04:38:44;100515.50;;;21.64;57.10
61109;BME280;46995;55.740;37.402;2022-08-25T04:41:13;100508.69;;;21.76;54.79
61109;BME280;46995;55.740;37.402;2022-08-25T04:43:41;100515.25;;;21.96;54.29
61109;BME280;46995;55.740;37.402;2022-08-25T04:46:16;100508.78;;;22.06;53.20
61109;BME280;46995;55.740;37.402;2022-08-25T04:48:42;100507.78;;;22.21;53.05
61109;BME280;46995;55.740;37.402;2022-08-25T04:51:15;100520.53;;;22.42;51.84
61109;BME280;46995;55.740;37.402;2022-08-25T04:53:42;100507.00;;;22.50;51.58
61109;BME280;46995;55.740;37.402;2022-08-25T04:56:10;100507.28;;;22.55;50.81
61109;BME280;46995;55.740;37.402;2022-08-25T04:58:38;100502.44;;;22.65;50.94
61109;BME280;46995;55.740;37.402;2022-08-25T05:01:07;100495.56;;;22.77;50.21
61109;BME280;46995;55.740;37.402;2022-08-25T05:03:34;100500.50;;;22.89;50.08
61109;BME280;46995;55.740;37.402;2022-08-25T05:06:01;100481.38;;;22.84;50.25
61109;BME280;46995;55.740;37.402;2022-08-25T05:08:27;100482.91;;;22.93;49.93
61109;BME280;46995;55.740;37.402;2022-08-25T05:10:53;100471.50;;;22.91;49.75
61109;BME280;46995;55.740;37.402;2022-08-25T05:13:22;100494.78;;;23.13;49.18
61109;BME280;46995;55.740;37.402;2022-08-25T05:15:56;100489.66;;;23.18;48.76
61109;BME280;46995;55.740;37.402;2022-08-25T05:18:24;100479.16;;;23.23;48.38
61109;BME280;46995;55.740;37.402;2022-08-25T05:20:52;100488.13;;;23.30;48.65
61109;BME280;46995;55.740;37.402;2022-08-25T05:23:20;100480.94;;;23.37;48.11
61109;BME280;46995;55.740;37.402;2022-08-25T05:25:47;100491.72;;;23.52;47.68
61109;BME280;46995;55.740;37.402;2022-08-25T05:28:14;100492.97;;;23.56;47.28
61109;BME280;46995;55.740;37.402;2022-08-25T05:30:40;100513.97;;;23.82;48.10
61109;BME280;46995;55.740;37.402;2022-08-25T05:33:08;100501.66;;;23.73;47.91
61109;BME280;46995;55.740;37.402;2022-08-25T05:35:34;100471.47;;;23.62;47.84
61109;BME280;46995;55.740;37.402;2022-08-25T05:38:01;100495.09;;;23.82;47.85
61109;BME280;46995;55.740;37.402;2022-08-25T05:40:29;100471.97;;;23.73;47.72
61109;BME280;46995;55.740;37.402;2022-08-25T05:42:55;100477.09;;;23.89;47.50
61109;BME280;46995;55.740;37.402;2022-08-25T05:45:21;100474.66;;;23.94;46.84
61109;BME280;46995;55.740;37.402;2022-08-25T05:47:48;100473.88;;;24.00;46.80
61109;BME280;46995;55.740;37.402;2022-08-25T05:50:13;100498.88;;;24.36;46.83
61109;BME280;46995;55.740;37.402;2022-08-25T05:52:39;100463.72;;;24.23;46.54
61109;BME280;46995;55.740;37.402;2022-08-25T05:55:06;100465.41;;;24.31;46.54
61109;BME280;46995;55.740;37.402;2022-08-25T05:57:32;100488.66;;;24.60;46.26
61109;BME280;46995;55.740;37.402;2022-08-25T05:59:59;100454.25;;;24.40;45.12
61109;BME280;46995;55.740;37.402;2022-08-25T06:02:25;100460.94;;;24.51;45.53
61109;BME280;46995;55.740;37.402;2022-08-25T06:05:20;100459.97;;;24.59;44.90
61109;BME280;46995;55.740;37.402;2022-08-25T06:07:48;100491.44;;;24.79;45.20
61109;BME280;46995;55.740;37.402;2022-08-25T06:10:16;100492.28;;;24.86;45.07
61109;BME280;46995;55.740;37.402;2022-08-25T06:12:44;100467.75;;;24.81;44.87
61109;BME280;46995;55.740;37.402;2022-08-25T06:15:15;100494.06;;;25.07;44.55
61109;BME280;46995;55.740;37.402;2022-08-25T06:17:42;100492.88;;;25.16;44.21
61109;BME280;46995;55.740;37.402;2022-08-25T06:20:11;100480.38;;;25.15;44.24
61109;BME280;46995;55.740;37.402;2022-08-25T06:22:37;100488.72;;;25.33;44.35
61109;BME280;46995;55.740;37.402;2022-08-25T06:25:04;100493.38;;;25.53;44.37
61109;BME280;46995;55.740;37.402;2022-08-25T06:27:29;100495.50;;;25.64;44.67
61109;BME280;46995;55.740;37.402;2022-08-25T06:29:56;100486.31;;;25.65;43.39
61109;BME280;46995;55.740;37.402;2022-08-25T06:32:22;100473.88;;;25.64;42.89
61109;BME280;46995;55.740;37.402;2022-08-25T06:34:48;100474.47;;;25.66;43.12
61109;BME280;46995;55.740;37.402;2022-08-25T06:37:14;100464.88;;;25.70;43.10
61109;BME280;46995;55.740;37.402;2022-08-25T06:39:41;100473.84;;;25.77;41.89
61109;BME280;46995;55.740;37.402;2022-08-25T06:42:06;100485.94;;;25.94;41.88
61109;BME280;46995;55.740;37.402;2022-08-25T06:44:32;100486.75;;;26.01;41.93
61109;BME280;46995;55.740;37.402;2022-08-25T06:46:58;100484.88;;;26.08;41.80
61109;BME280;46995;55.740;37.402;2022-08-25T06:49:24;100477.59;;;26.15;40.96
61109;BME280;46995;55.740;37.402;2022-08-25T06:51:53;100464.66;;;26.17;41.27
61109;BME280;46995;55.740;37.402;2022-08-25T06:54:18;100457.59;;;26.30;40.97
61109;BME280;46995;55.740;37.402;2022-08-25T06:56:44;100472.97;;;26.49;40.64
61109;BME280;46995;55.740;37.402;2022-08-25T06:59:10;100467.75;;;26.54;39.71
61109;BME280;46995;55.740;37.402;2022-08-25T07:01:36;100460.63;;;26.60;39.39
61109;BME280;46995;55.740;37.402;2022-08-25T07:04:04;100455.00;;;26.68;39.32
61109;BME280;46995;55.740;37.402;2022-08-25T07:06:32;100471.63;;;26.84;39.15
61109;BME280;46995;55.740;37.402;2022-08-25T07:08:59;100456.19;;;26.85;38.54
61109;BME280;46995;55.740;37.402;2022-08-25T07:11:26;100462.59;;;26.97;38.58
61109;BME280;46995;55.740;37.402;2022-08-25T07:13:52;100465.91;;;27.06;38.26
61109;BME280;46995;55.740;37.402;2022-08-25T07:16:19;100466.53;;;27.08;38.24
61109;BME280;46995;55.740;37.402;2022-08-25T07:18:46;100467.16;;;27.10;38.16
61109;BME280;46995;55.740;37.402;2022-08-25T07:21:13;100465.84;;;27.19;38.12
61109;BME280;46995;55.740;37.402;2022-08-25T07:23:40;100460.59;;;27.24;37.88
61109;BME280;46995;55.740;37.402;2022-08-25T07:26:10;100473.84;;;27.38;37.35
61109;BME280;46995;55.740;37.402;2022-08-25T07:28:36;100467.16;;;27.41;37.22
61109;BME280;46995;55.740;37.402;2022-08-25T07:31:03;100451.25;;;27.51;38.01
61109;BME280;46995;55.740;37.402;2022-08-25T07:33:29;100450.00;;;27.47;36.61
61109;BME280;46995;55.740;37.402;2022-08-25T07:35:54;100463.72;;;27.59;36.50
61109;BME280;46995;55.740;37.402;2022-08-25T07:38:21;100435.56;;;27.53;36.14
61109;BME280;46995;55.740;37.402;2022-08-25T07:40:48;100452.41;;;27.68;36.08
61109;BME280;46995;55.740;37.402;2022-08-25T07:43:20;100446.88;;;27.75;36.12
61109;BME280;46995;55.740;37.402;2022-08-25T07:45:46;100457.69;;;27.81;36.06
61109;BME280;46995;55.740;37.402;2022-08-25T07:48:12;100450.00;;;27.78;36.23
61109;BME280;46995;55.740;37.402;2022-08-25T07:50:40;100441.88;;;27.78;36.07
61109;BME280;46995;55.740;37.402;2022-08-25T07:53:07;100435.94;;;27.88;36.10
61109;BME280;46995;55.740;37.402;2022-08-25T07:55:34;100450.78;;;28.10;35.98
61109;BME280;46995;55.740;37.402;2022-08-25T07:58:05;100447.41;;;28.15;36.28
61109;BME280;46995;55.740;37.402;2022-08-25T08:00:32;100446.50;;;28.21;35.74
61109;BME280;46995;55.740;37.402;2022-08-25T08:03:05;100442.28;;;28.25;35.11
61109;BME280;46995;55.740;37.402;2022-08-25T08:05:31;100427.72;;;28.19;35.20
61109;BME280;46995;55.740;37.402;2022-08-25T08:07:57;100432.25;;;28.26;35.20
61109;BME280;46995;55.740;37.402;2022-08-25T08:10:24;100429.75;;;28.24;35.27
61109;BME280;46995;55.740;37.402;2022-08-25T08:12:50;100412.47;;;28.18;35.56
61109;BME280;46995;55.740;37.402;2022-08-25T08:15:16;100401.38;;;28.20;35.30
61109;BME280;46995;55.740;37.402;2022-08-25T08:17:44;100424.78;;;28.39;34.76
61109;BME280;46995;55.740;37.402;2022-08-25T08:20:11;100423.66;;;28.47;34.18
61109;BME280;46995;55.740;37.402;2022-08-25T08:22:39;100410.59;;;28.55;34.16
61109;BME280;46995;55.740;37.402;2022-08-25T08:25:07;100421.75;;;28.65;33.43
61109;BME280;46995;55.740;37.402;2022-08-25T08:27:33;100407.09;;;28.67;33.62
61109;BME280;46995;55.740;37.402;2022-08-25T08:30:00;100402.84;;;28.71;33.68
61109;BME280;46995;55.740;37.402;2022-08-25T08:32:26;100389.13;;;28.65;33.39
61109;BME280;46995;55.740;37.402;2022-08-25T08:34:52;100403.78;;;28.83;33.25
61109;BME280;46995;55.740;37.402;2022-08-25T08:37:18;100403.53;;;28.84;33.51
61109;BME280;46995;55.740;37.402;2022-08-25T08:39:44;100383.69;;;28.84;33.47
61109;BME280;46995;55.740;37.402;2022-08-25T08:50:46;100394.63;;;29.07;32.26
61109;BME280;46995;55.740;37.402;2022-08-25T08:53:23;100397.22;;;29.02;32.44
61109;BME280;46995;55.740;37.402;2022-08-25T08:55:51;100403.53;;;29.14;34.26
61109;BME280;46995;55.740;37.402;2022-08-25T08:58:21;100395.59;;;29.13;31.99
61109;BME280;46995;55.740;37.402;2022-08-25T09:00:51;100387.22;;;29.14;32.05
61109;BME280;46995;55.740;37.402;2022-08-25T09:03:39;100397.06;;;29.27;33.03
61109;BME280;46995;55.740;37.402;2022-08-25T09:08:54;100397.53;;;29.24;31.62
61109;BME280;46995;55.740;37.402;2022-08-25T09:11:44;100393.88;;;29.30;32.03
61109;BME280;46995;55.740;37.402;2022-08-25T09:14:33;100382.31;;;29.34;31.56
61109;BME280;46995;55.740;37.402;2022-08-25T09:25:23;100368.59;;;29.53;30.17
61109;BME280;46995;55.740;37.402;2022-08-25T09:30:44;100366.72;;;29.65;29.65
61109;BME280;46995;55.740;37.402;2022-08-25T09:33:20;100352.78;;;29.73;29.87
61109;BME280;46995;55.740;37.402;2022-08-25T09:35:47;100348.25;;;29.78;30.06
61109;BME280;46995;55.740;37.402;2022-08-25T09:38:14;100353.97;;;29.88;30.28
61109;BME280;46995;55.740;37.402;2022-08-25T09:40:43;100364.41;;;30.03;30.19
61109;BME280;46995;55.740;37.402;2022-08-25T09:46:10;100363.28;;;30.16;29.08
61109;BME280;46995;55.740;37.402;2022-08-25T09:48:54;100360.72;;;30.09;29.81
61109;BME280;46995;55.740;37.402;2022-08-25T09:51:28;100356.34;;;30.08;29.74
61109;BME280;46995;55.740;37.402;2022-08-25T09:56:53;100358.44;;;30.29;29.59
61109;BME280;46995;55.740;37.402;2022-08-25T10:01:49;100350.13;;;30.24;29.63
61109;BME280;46995;55.740;37.402;2022-08-25T10:04:26;100341.16;;;30.12;29.43
61109;BME280;46995;55.740;37.402;2022-08-25T10:06:53;100342.91;;;30.18;29.79
61109;BME280;46995;55.740;37.402;2022-08-25T10:09:40;100337.56;;;30.35;29.06
61109;BME280;46995;55.740;37.402;2022-08-25T10:12:17;100334.78;;;30.47;28.96
61109;BME280;46995;55.740;37.402;2022-08-25T10:14:46;100319.13;;;30.42;29.01
61109;BME280;46995;55.740;37.402;2022-08-25T10:19:41;100346.00;;;30.62;28.93
61109;BME280;46995;55.740;37.402;2022-08-25T10:22:08;100341.03;;;30.59;28.75
61109;BME280;46995;55.740;37.402;2022-08-25T10:24:38;100340.00;;;30.48;28.45
61109;BME280;46995;55.740;37.402;2022-08-25T10:27:26;100334.47;;;30.31;29.08
61109;BME280;46995;55.740;37.402;2022-08-25T10:34:56;100336.56;;;29.78;29.39
61109;BME280;46995;55.740;37.402;2022-08-25T10:45:26;100322.00;;;29.61;29.86
61109;BME280;46995;55.740;37.402;2022-08-25T10:56:32;100307.63;;;30.52;29.60
61109;BME280;46995;55.740;37.402;2022-08-25T11:02:28;100300.38;;;30.57;28.70
61109;BME280;46995;55.740;37.402;2022-08-25T11:05:29;100307.16;;;30.55;29.73
61109;BME280;46995;55.740;37.402;2022-08-25T11:08:33;100305.16;;;30.39;29.48
61109;BME280;46995;55.740;37.402;2022-08-25T11:11:15;100298.38;;;30.13;29.42
61109;BME280;46995;55.740;37.402;2022-08-25T11:16:47;100287.44;;;29.73;29.83
61109;BME280;46995;55.740;37.402;2022-08-25T11:19:28;100285.53;;;29.62;30.09
61109;BME280;46995;55.740;37.402;2022-08-25T11:22:03;100277.72;;;29.54;30.64
61109;BME280;46995;55.740;37.402;2022-08-25T11:27:26;100271.81;;;29.57;30.41
61109;BME280;46995;55.740;37.402;2022-08-25T11:30:06;100262.19;;;29.77;30.39
61109;BME280;46995;55.740;37.402;2022-08-25T11:32:35;100272.59;;;29.92;30.46
61109;BME280;46995;55.740;37.402;2022-08-25T11:35:05;100264.31;;;29.99;30.14
61109;BME280;46995;55.740;37.402;2022-08-25T11:37:32;100259.41;;;29.89;30.29
61109;BME280;46995;55.740;37.402;2022-08-25T11:50:59;100252.31;;;30.85;29.73
61109;BME280;46995;55.740;37.402;2022-08-25T11:53:28;100237.47;;;30.92;29.01
61109;BME280;46995;55.740;37.402;2022-08-25T11:55:58;100231.13;;;31.03;28.59
61109;BME280;46995;55.740;37.402;2022-08-25T12:00:54;100244.41;;;31.17;28.30
61109;BME280;46995;55.740;37.402;2022-08-25T12:06:43;100246.06;;;31.18;28.85
61109;BME280;46995;55.740;37.402;2022-08-25T12:14:07;100243.44;;;31.06;29.25
61109;BME280;46995;55.740;37.402;2022-08-25T12:27:23;100230.78;;;31.55;27.93
61109;BME280;46995;55.740;37.402;2022-08-25T12:32:59;100224.25;;;31.18;28.43
61109;BME280;46995;55.740;37.402;2022-08-25T12:35:58;100220.41;;;30.85;28.88
61109;BME280;46995;55.740;37.402;2022-08-25T12:38:41;100225.91;;;30.57;28.99
61109;BME280;46995;55.740;37.402;2022-08-25T12:41:09;100221.63;;;30.33;28.73
61109;BME280;46995;55.740;37.402;2022-08-25T12:43:46;100223.34;;;30.22;28.87
61109;BME280;46995;55.740;37.402;2022-08-25T12:51:51;100205.00;;;30.46;28.88
61109;BME280;46995;55.740;37.402;2022-08-25T12:54:41;100200.56;;;30.73;28.84
61109;BME280;46995;55.740;37.402;2022-08-25T12:59:58;100182.09;;;31.08;27.92
61109;BME280;46995;55.740;37.402;2022-08-25T13:12:08;100161.88;;;31.09;27.62
61109;BME280;46995;55.740;37.402;2022-08-25T13:14:42;100175.56;;;31.31;26.84
61109;BME280;46995;55.740;37.402;2022-08-25T13:17:28;100175.00;;;31.51;26.61
61109;BME280;46995;55.740;37.402;2022-08-25T13:20:15;100181.63;;;31.55;26.67
61109;BME280;46995;55.740;37.402;2022-08-25T13:22:47;100160.66;;;31.39;26.68
61109;BME280;46995;55.740;37.402;2022-08-25T13:25:19;100167.34;;;31.48;26.56
61109;BME280;46995;55.740;37.402;2022-08-25T13:27:51;100143.75;;;31.42;26.33
61109;BME280;46995;55.740;37.402;2022-08-25T13:30:35;100168.31;;;31.59;26.80
61109;BME280;46995;55.740;37.402;2022-08-25T13:33:19;100173.31;;;31.67;26.38
61109;BME280;46995;55.740;37.402;2022-08-25T13:35:51;100160.28;;;31.52;26.82
61109;BME280;46995;55.740;37.402;2022-08-25T13:38:39;100164.59;;;31.48;26.79
61109;BME280;46995;55.740;37.402;2022-08-25T13:41:07;100159.91;;;31.43;27.36
61109;BME280;46995;55.740;37.402;2022-08-25T13:43:35;100149.94;;;31.32;27.38
61109;BME280;46995;55.740;37.402;2022-08-25T13:46:01;100149.41;;;31.13;27.85
61109;BME280;46995;55.740;37.402;2022-08-25T13:48:36;100158.59;;;31.07;28.04
61109;BME280;46995;55.740;37.402;2022-08-25T13:51:09;100138.81;;;30.84;28.11
61109;BME280;46995;55.740;37.402;2022-08-25T13:53:47;100148.50;;;30.75;27.48
61109;BME280;46995;55.740;37.402;2022-08-25T13:56:22;100153.47;;;30.61;28.51
61109;BME280;46995;55.740;37.402;2022-08-25T13:58:48;100152.84;;;30.42;27.99
61109;BME280;46995;55.740;37.402;2022-08-25T14:01:31;100136.63;;;30.19;28.21
61109;BME280;46995;55.740;37.402;2022-08-25T14:04:29;100129.50;;;30.01;28.75
61109;BME280;46995;55.740;37.402;2022-08-25T14:07:27;100158.50;;;30.07;28.98
61109;BME280;46995;55.740;37.402;2022-08-25T14:10:29;100141.94;;;29.97;28.96
61109;BME280;46995;55.740;37.402;2022-08-25T14:13:30;100149.91;;;29.87;29.05
61109;BME280;46995;55.740;37.402;2022-08-25T14:15:52;100138.81;;;29.77;29.01
61109;BME280;46995;55.740;37.402;2022-08-25T14:18:29;100134.69;;;29.63;30.29
61109;BME280;46995;55.740;37.402;2022-08-25T14:20:57;100139.47;;;29.56;29.92
61109;BME280;46995;55.740;37.402;2022-08-25T14:23:25;100144.81;;;29.51;30.08
61109;BME280;46995;55.740;37.402;2022-08-25T14:25:55;100129.94;;;29.41;29.89
61109;BME280;46995;55.740;37.402;2022-08-25T14:28:24;100142.22;;;29.44;30.35
61109;BME280;46995;55.740;37.402;2022-08-25T14:30:54;100138.56;;;29.38;29.88
61109;BME280;46995;55.740;37.402;2022-08-25T14:33:24;100124.69;;;29.28;29.51
61109;BME280;46995;55.740;37.402;2022-08-25T14:35:52;100133.47;;;29.30;30.02
61109;BME280;46995;55.740;37.402;2022-08-25T14:38:19;100136.66;;;29.27;29.94
61109;BME280;46995;55.740;37.402;2022-08-25T14:40:44;100137.97;;;29.36;30.21
61109;BME280;46995;55.740;37.402;2022-08-25T14:43:11;100122.94;;;29.22;29.82
61109;BME280;46995;55.740;37.402;2022-08-25T14:45:40;100129.44;;;29.21;30.12
61109;BME280;46995;55.740;37.402;2022-08-25T14:48:20;100130.03;;;29.23;30.17
61109;BME280;46995;55.740;37.402;2022-08-25T14:50:49;100127.19;;;29.18;30.36
61109;BME280;46995;55.740;37.402;2022-08-25T14:53:15;100111.72;;;29.07;30.33
61109;BME280;46995;55.740;37.402;2022-08-25T14:55:40;100120.47;;;29.09;30.14